createdAt,value
2022-09-04T00:00:10.341Z,101071.75
2022-09-04T00:02:59.212Z,101004.88
2022-09-04T00:05:32.561Z,101050.31
2022-09-04T00:08:24.579Z,101075.19
2022-09-04T00:10:58.077Z,101074.69
2022-09-04T00:13:32.966Z,101078.22
2022-09-04T00:16:09.661Z,101077.84
2022-09-04T00:18:42.975Z,101073.69
2022-09-04T00:21:18.465Z,101080.03
2022-09-04T00:23:53.807Z,101083.44
2022-09-04T00:26:42.293Z,101082.97
2022-09-04T00:29:19.584Z,101052.00
2022-09-04T00:31:59.195Z,101082.91
2022-09-04T00:34:44.601Z,101083.63
2022-09-04T00:37:18.752Z,101086.53
2022-09-04T00:39:55.044Z,101061.09
2022-09-04T00:42:37.748Z,101087.03
2022-09-04T00:45:24.404Z,100959.97
2022-09-04T00:48:25.650Z,101082.88
2022-09-04T00:51:11.702Z,101063.28
2022-09-04T00:54:09.434Z,101086.16
2022-09-04T00:57:14.266Z,101077.03
2022-09-04T01:00:07.527Z,101086.53
2022-09-04T01:02:58.888Z,101086.09
2022-09-04T01:05:41.190Z,101091.88
2022-09-04T01:08:23.779Z,101073.13
2022-09-04T01:11:05.740Z,101081.94
2022-09-04T01:13:41.883Z,101061.09
2022-09-04T01:16:16.717Z,101081.31
2022-09-04T01:18:56.231Z,101087.94
2022-09-04T01:24:54.368Z,101004.47
2022-09-04T01:27:31.668Z,101078.75
2022-09-04T01:30:08.320Z,101087.31
2022-09-04T01:32:46.948Z,101077.50
2022-09-04T01:35:35.519Z,101058.91
2022-09-04T01:38:17.006Z,101076.16
2022-09-04T01:40:50.886Z,101073.53
2022-09-04T01:43:22.908Z,101077.22
2022-09-04T01:46:22.327Z,101080.31
2022-09-04T01:48:56.466Z,101055.13
2022-09-04T01:51:34.355Z,101077.00
2022-09-04T01:54:13.843Z,101072.63
2022-09-04T01:56:49.967Z,101068.22
2022-09-04T01:59:27.996Z,101081.81
2022-09-04T02:02:03.580Z,101038.91
2022-09-04T02:04:41.259Z,101081.41
2022-09-04T02:07:30.124Z,101045.22
2022-09-04T02:10:08.341Z,101078.88
2022-09-04T02:12:48.096Z,100990.19
2022-09-04T02:15:33.579Z,101077.38
2022-09-04T02:18:15.125Z,101077.38
2022-09-04T02:20:52.019Z,101076.53
2022-09-04T02:23:30.993Z,101036.44
2022-09-04T02:26:09.390Z,101077.56
2022-09-04T02:28:48.669Z,101070.47
2022-09-04T02:31:30.158Z,101075.22
2022-09-04T02:34:07.562Z,101087.19
2022-09-04T02:36:44.123Z,101076.38
2022-09-04T02:39:30.189Z,101082.47
2022-09-04T02:42:10.880Z,101064.84
2022-09-04T02:44:48.250Z,101085.97
2022-09-04T02:47:29.225Z,101045.72
2022-09-04T02:50:04.593Z,101076.03
2022-09-04T02:52:46.317Z,101080.19
2022-09-04T02:55:32.378Z,101083.09
2022-09-04T02:58:15.827Z,101083.94
2022-09-04T03:00:51.357Z,101094.09
2022-09-04T03:03:28.843Z,101074.34
2022-09-04T03:06:10.238Z,101088.00
2022-09-04T03:08:46.078Z,101098.28
2022-09-04T03:11:22.286Z,101102.31
2022-09-04T03:13:54.434Z,101096.56
2022-09-04T03:16:29.436Z,101096.56
2022-09-04T03:19:18.568Z,101094.44
2022-09-04T03:21:54.634Z,101082.78
2022-09-04T03:24:27.723Z,101099.97
2022-09-04T03:27:00.869Z,101075.63
2022-09-04T03:29:39.487Z,101057.03
2022-09-04T03:32:17.201Z,101089.31
2022-09-04T03:34:55.171Z,101076.81
2022-09-04T03:37:44.284Z,101100.19
2022-09-04T03:40:22.914Z,101099.25
2022-09-04T03:43:08.149Z,101104.34
2022-09-04T03:45:50.605Z,101089.53
2022-09-04T03:48:35.884Z,101110.16
2022-09-04T03:51:17.141Z,101083.22
2022-09-04T03:53:53.706Z,101113.09
2022-09-04T03:56:37.676Z,101097.22
2022-09-04T03:59:07.627Z,101099.19
2022-09-04T04:01:48.605Z,101104.94
2022-09-04T04:04:36.261Z,101111.69
2022-09-04T04:07:14.099Z,101010.06
2022-09-04T04:10:00.985Z,101121.00
2022-09-04T04:12:56.914Z,101112.66
2022-09-04T04:15:34.598Z,101115.41
2022-09-04T04:18:39.133Z,101122.25
2022-09-04T04:21:13.312Z,101121.06
2022-09-04T04:24:19.002Z,101123.13
2022-09-04T04:26:59.822Z,101124.78
2022-09-04T04:29:45.799Z,101127.59
2022-09-04T04:32:26.510Z,101127.41
2022-09-04T04:35:11.636Z,101071.94
2022-09-04T04:37:53.515Z,101124.38
2022-09-04T04:40:41.314Z,101136.88
2022-09-04T04:43:18.634Z,101135.00
2022-09-04T04:45:55.710Z,101113.97
2022-09-04T04:48:54.265Z,101137.63
2022-09-04T04:51:44.032Z,101127.59
2022-09-04T04:54:28.647Z,101127.63
2022-09-04T04:57:09.867Z,101127.00
2022-09-04T04:59:45.054Z,101104.88
2022-09-04T05:02:24.109Z,101146.91
2022-09-04T05:05:03.477Z,101133.81
2022-09-04T05:07:41.798Z,101138.53
2022-09-04T05:10:20.187Z,101157.53
2022-09-04T05:13:12.814Z,101147.50
2022-09-04T05:16:08.010Z,101145.75
2022-09-04T05:18:48.251Z,101156.84
2022-09-04T05:21:23.864Z,101071.50
2022-09-04T05:23:59.808Z,101148.69
2022-09-04T05:26:37.868Z,101146.75
2022-09-04T05:29:14.794Z,101152.25
2022-09-04T05:31:50.423Z,101167.78
2022-09-04T05:34:29.261Z,101157.25
2022-09-04T05:37:08.505Z,101161.44
2022-09-04T05:39:50.316Z,101158.31
2022-09-04T05:42:42.996Z,101124.88
2022-09-04T05:45:23.190Z,101170.00
2022-09-04T05:48:03.482Z,101166.09
2022-09-04T05:50:51.903Z,101178.50
2022-09-04T05:53:42.091Z,101177.31
2022-09-04T05:56:29.006Z,101184.41
2022-09-04T05:59:12.794Z,101185.13
2022-09-04T06:02:04.622Z,101160.00
2022-09-04T06:04:56.950Z,101169.47
2022-09-04T06:07:32.893Z,101169.56
2022-09-04T06:10:12.566Z,101179.44
2022-09-04T06:13:10.817Z,101184.50
2022-09-04T06:15:51.177Z,101153.91
2022-09-04T06:18:40.934Z,101112.34
2022-09-04T06:21:28.236Z,101200.78
2022-09-04T06:24:10.642Z,101194.91
2022-09-04T06:26:58.036Z,101204.31
2022-09-04T06:29:43.039Z,101203.66
2022-09-04T06:32:32.684Z,101203.41
2022-09-04T06:35:33.543Z,101204.31
2022-09-04T06:38:18.370Z,101195.09
2022-09-04T06:41:04.329Z,101208.00
2022-09-04T06:43:41.688Z,101197.09
2022-09-04T06:46:23.726Z,101212.75
2022-09-04T06:49:00.800Z,101205.44
2022-09-04T06:51:44.567Z,101199.78
2022-09-04T06:54:17.316Z,101206.72
2022-09-04T06:57:04.021Z,101215.72
2022-09-04T06:59:47.722Z,101206.72
2022-09-04T07:02:22.763Z,101214.63
2022-09-04T07:05:05.150Z,101200.81
2022-09-04T07:07:45.162Z,101215.41
2022-09-04T07:10:17.666Z,101204.59
2022-09-04T07:13:30.003Z,101193.25
2022-09-04T07:16:16.622Z,101200.22
2022-09-04T07:19:11.758Z,101216.69
2022-09-04T07:21:52.373Z,101204.94
2022-09-04T07:24:46.208Z,101198.41
2022-09-04T07:27:27.010Z,101200.41
2022-09-04T07:30:03.063Z,101200.69
2022-09-04T07:32:39.244Z,101211.47
2022-09-04T07:35:16.627Z,101144.78
2022-09-04T07:37:58.762Z,101163.91
2022-09-04T07:40:38.227Z,101206.22
2022-09-04T07:43:30.182Z,101197.13
2022-09-04T07:46:09.723Z,101190.84
2022-09-04T07:48:45.277Z,101199.75
2022-09-04T07:51:17.825Z,101197.53
2022-09-04T07:54:22.920Z,101191.38
2022-09-04T07:57:13.545Z,101185.56
2022-09-04T08:00:02.875Z,101160.88
2022-09-04T08:03:01.831Z,101122.31
2022-09-04T08:05:33.365Z,101195.00
2022-09-04T08:08:33.768Z,101191.16
2022-09-04T08:11:33.564Z,101197.63
2022-09-04T08:14:22.722Z,101191.16
2022-09-04T08:17:05.672Z,101183.84
2022-09-04T08:19:46.059Z,101197.59
2022-09-04T08:22:31.316Z,101199.31
2022-09-04T08:25:11.351Z,101209.81
2022-09-04T08:28:00.116Z,101190.69
2022-09-04T08:30:36.958Z,101206.00
2022-09-04T08:33:43.473Z,101203.66
2022-09-04T08:36:24.178Z,101199.34
2022-09-04T08:39:08.592Z,101195.16
2022-09-04T08:42:17.190Z,101199.53
2022-09-04T08:45:24.855Z,101192.53
2022-09-04T08:48:21.069Z,101197.97
2022-09-04T08:51:40.293Z,101189.41
2022-09-04T08:54:36.217Z,101191.03
2022-09-04T08:57:29.992Z,101190.31
2022-09-04T09:00:05.286Z,101197.59
2022-09-04T09:03:23.066Z,101198.31
2022-09-04T09:06:40.053Z,101205.44
2022-09-04T09:09:51.219Z,101190.72
2022-09-04T09:12:53.934Z,101193.56
2022-09-04T09:15:46.046Z,101130.91
2022-09-04T09:18:35.873Z,101203.00
2022-09-04T09:21:10.564Z,101190.81
2022-09-04T09:23:46.557Z,101188.28
2022-09-04T09:26:26.678Z,101176.47
2022-09-04T09:29:32.081Z,101194.16
2022-09-04T09:32:41.464Z,101186.03
2022-09-04T09:35:59.904Z,101194.00
2022-09-04T09:39:00.170Z,101191.47
2022-09-04T09:42:14.103Z,101179.88
2022-09-04T09:45:15.423Z,101167.47
2022-09-04T09:48:20.727Z,101144.69
2022-09-04T09:51:35.585Z,101185.59
2022-09-04T09:54:31.960Z,101177.66
2022-09-04T09:57:40.507Z,101180.75
2022-09-04T10:00:25.467Z,101174.16
2022-09-04T10:03:28.550Z,101151.19
2022-09-04T10:06:49.367Z,101184.97
2022-09-04T10:09:55.468Z,101167.34
2022-09-04T10:13:10.128Z,101180.59
2022-09-04T10:16:20.597Z,101185.25
2022-09-04T10:19:16.841Z,101178.97
2022-09-04T10:22:27.517Z,101187.13
2022-09-04T10:25:25.072Z,101185.28
2022-09-04T10:28:33.432Z,101190.47
2022-09-04T10:31:47.841Z,101168.16
2022-09-04T10:35:03.559Z,101195.00
2022-09-04T10:37:53.410Z,101169.84
2022-09-04T10:40:50.655Z,101184.38
2022-09-04T10:44:00.288Z,101143.47
2022-09-04T10:46:38.806Z,101175.19
2022-09-04T10:49:37.604Z,101186.00
2022-09-04T10:52:37.086Z,101190.06
2022-09-04T10:55:37.044Z,101181.88
2022-09-04T10:58:29.361Z,101183.22
2022-09-04T11:01:23.643Z,101180.53
2022-09-04T11:04:22.836Z,101178.94
2022-09-04T11:07:10.620Z,101186.53
2022-09-04T11:10:09.013Z,101184.72
2022-09-04T11:13:17.075Z,101183.34
2022-09-04T11:16:01.669Z,101181.50
2022-09-04T11:19:10.175Z,101184.50
2022-09-04T11:22:25.088Z,101181.69
2022-09-04T11:25:21.129Z,101179.41
2022-09-04T11:28:09.384Z,101176.53
2022-09-04T11:30:57.735Z,101167.03
2022-09-04T11:34:14.456Z,101170.66
2022-09-04T11:37:40.654Z,101162.97
2022-09-04T11:40:46.395Z,101163.09
2022-09-04T11:43:59.741Z,101163.84
2022-09-04T11:46:52.840Z,101102.88
2022-09-04T11:49:44.267Z,101163.66
2022-09-04T11:52:23.005Z,101161.69
2022-09-04T11:55:17.161Z,101160.56
2022-09-04T11:57:59.798Z,101146.66
2022-09-04T12:00:36.018Z,101160.25
2022-09-04T12:03:40.263Z,101166.91
2022-09-04T12:06:37.501Z,101147.03
2022-09-04T12:09:41.955Z,101154.28
2022-09-04T12:12:40.675Z,101157.69
2022-09-04T12:15:36.379Z,101146.09
2022-09-04T12:18:31.519Z,101150.44
2022-09-04T12:21:43.136Z,101145.00
2022-09-04T12:24:46.740Z,101130.53
2022-09-04T12:28:19.372Z,101136.09
2022-09-04T12:31:01.980Z,101145.53
2022-09-04T12:33:49.553Z,101148.22
2022-09-04T12:36:54.524Z,101093.84
2022-09-04T12:40:03.978Z,101135.44
2022-09-04T12:42:38.887Z,101113.69
2022-09-04T12:45:21.076Z,101141.69
2022-09-04T12:47:58.843Z,101142.91
2022-09-04T12:50:37.501Z,101138.13
2022-09-04T12:53:40.413Z,101140.72
2022-09-04T12:56:12.543Z,101148.09
2022-09-04T12:59:15.948Z,101135.59
2022-09-04T13:02:00.967Z,101128.38
2022-09-04T13:04:39.373Z,101137.88
2022-09-04T13:07:30.067Z,101124.94
2022-09-04T13:10:16.593Z,101147.63
2022-09-04T13:12:57.264Z,101136.28
2022-09-04T13:15:49.884Z,101145.03
2022-09-04T13:18:37.283Z,101126.75
2022-09-04T13:21:19.769Z,101130.28
2022-09-04T13:24:02.121Z,101117.44
2022-09-04T13:26:48.113Z,101141.97
2022-09-04T13:29:25.448Z,101139.22
2022-09-04T13:32:10.388Z,101133.69
2022-09-04T13:34:58.720Z,101137.16
2022-09-04T13:37:34.250Z,101049.78
2022-09-04T13:40:38.668Z,101136.16
2022-09-04T13:43:46.899Z,101062.56
2022-09-04T13:46:19.563Z,101139.97
2022-09-04T13:48:54.389Z,101145.78
2022-09-04T13:51:29.823Z,101144.28
2022-09-04T13:54:08.412Z,101139.13
2022-09-04T13:56:44.000Z,101153.53
2022-09-04T13:59:20.713Z,101142.25
2022-09-04T14:01:55.042Z,101143.84
2022-09-04T14:04:28.493Z,101072.91
2022-09-04T14:07:07.096Z,101107.72
2022-09-04T14:09:43.065Z,101136.19
2022-09-04T14:12:23.391Z,101146.88
2022-09-04T14:15:34.096Z,101146.53
2022-09-04T14:18:19.044Z,101145.13
2022-09-04T14:21:01.442Z,101143.59
2022-09-04T14:23:48.144Z,101147.38
2022-09-04T14:26:30.203Z,101155.63
2022-09-04T14:29:09.170Z,101111.25
2022-09-04T14:31:49.049Z,101161.88
2022-09-04T14:34:33.941Z,101163.66
2022-09-04T14:37:18.751Z,101161.00
2022-09-04T14:39:50.659Z,101178.47
2022-09-04T14:42:47.056Z,101148.44
2022-09-04T14:45:31.811Z,101154.84
2022-09-04T14:48:07.001Z,101160.69
2022-09-04T14:50:50.679Z,101158.56
2022-09-04T14:53:27.561Z,101138.56
2022-09-04T14:56:33.026Z,101155.56
2022-09-04T14:59:12.446Z,101155.72
2022-09-04T15:02:14.869Z,101144.84
2022-09-04T15:05:13.758Z,101144.75
2022-09-04T15:07:56.739Z,101128.69
2022-09-04T15:10:33.129Z,101157.94
2022-09-04T15:13:35.415Z,101161.34
2022-09-04T15:16:21.024Z,101164.13
2022-09-04T15:18:59.233Z,101177.94
2022-09-04T15:21:39.017Z,101140.03
2022-09-04T15:24:18.109Z,101142.81
2022-09-04T15:26:55.862Z,101158.94
2022-09-04T15:29:29.933Z,101159.00
2022-09-04T15:32:09.343Z,101150.25
2022-09-04T15:34:43.180Z,101173.28
2022-09-04T15:37:22.275Z,101135.97
2022-09-04T15:40:02.327Z,101137.09
2022-09-04T15:42:40.130Z,101146.56
2022-09-04T15:45:18.375Z,101149.06
2022-09-04T15:48:09.311Z,101154.97
2022-09-04T15:50:51.506Z,101148.16
2022-09-04T15:53:27.633Z,101134.72
2022-09-04T15:56:29.842Z,101151.19
2022-09-04T15:59:06.101Z,101161.88
2022-09-04T16:01:44.692Z,101136.78
2022-09-04T16:04:23.389Z,101153.25
2022-09-04T16:06:59.062Z,101160.47
2022-09-04T16:09:35.043Z,101129.53
2022-09-04T16:12:11.339Z,101162.19
2022-09-04T16:14:45.585Z,101152.97
2022-09-04T16:17:21.031Z,101158.88
2022-09-04T16:20:00.852Z,101165.63
2022-09-04T16:22:42.160Z,101141.63
2022-09-04T16:25:24.359Z,101151.13
2022-09-04T16:28:02.506Z,101156.31
2022-09-04T16:30:42.896Z,101132.88
2022-09-04T16:33:28.247Z,101158.63
2022-09-04T16:36:03.374Z,101151.34
2022-09-04T16:38:40.821Z,101159.28
2022-09-04T16:41:15.904Z,101160.66
2022-09-04T16:44:12.038Z,101146.72
2022-09-04T16:46:56.497Z,101149.63
2022-09-04T16:49:32.555Z,101077.16
2022-09-04T16:52:22.149Z,101156.56
2022-09-04T16:54:55.461Z,101149.97
2022-09-04T16:57:30.090Z,101158.38
2022-09-04T17:00:03.399Z,101156.69
2022-09-04T17:02:35.849Z,101153.59
2022-09-04T17:05:17.925Z,101147.59
2022-09-04T17:07:53.736Z,101155.84
2022-09-04T17:10:36.660Z,101159.53
2022-09-04T17:13:13.203Z,101125.50
2022-09-04T17:15:53.678Z,101142.38
2022-09-04T17:18:25.408Z,101166.03
2022-09-04T17:24:34.820Z,101160.97
2022-09-04T17:28:55.742Z,101165.63
2022-09-04T17:29:18.571Z,101169.59
2022-09-04T17:29:53.314Z,101174.84
2022-09-04T17:33:58.454Z,101175.69
2022-09-04T17:40:37.664Z,101176.41
2022-09-04T17:40:50.563Z,101173.66
2022-09-04T17:41:36.136Z,101163.47
2022-09-04T17:44:25.581Z,101187.56
2022-09-04T17:47:09.604Z,101174.78
2022-09-04T17:49:45.958Z,101179.72
2022-09-04T17:52:27.399Z,101185.53
2022-09-04T17:55:03.378Z,101166.19
2022-09-04T17:57:50.827Z,101193.34
2022-09-04T18:00:22.086Z,101186.53
2022-09-04T18:02:59.385Z,101178.94
2022-09-04T18:05:34.961Z,101157.94
2022-09-04T18:08:16.514Z,101185.59
2022-09-04T18:10:53.817Z,101068.09
2022-09-04T18:13:37.724Z,101193.09
2022-09-04T18:16:19.653Z,101189.50
2022-09-04T18:18:54.456Z,101192.44
2022-09-04T18:21:28.778Z,101178.16
2022-09-04T18:24:03.617Z,101206.09
2022-09-04T18:26:41.454Z,101202.75
2022-09-04T18:33:39.885Z,101191.09
2022-09-04T18:37:12.133Z,101196.84
2022-09-04T18:37:21.673Z,101202.91
2022-09-04T18:38:42.179Z,101205.50
2022-09-04T18:50:20.581Z,101193.00
2022-09-04T18:50:28.624Z,101172.72
2022-09-04T18:50:36.089Z,101201.66
2022-09-04T18:50:43.761Z,101202.38
2022-09-04T18:53:14.897Z,101203.97
2022-09-04T18:55:47.434Z,101201.09
2022-09-04T18:58:47.064Z,101204.72
2022-09-04T19:01:27.380Z,101205.94
2022-09-04T19:03:58.713Z,101206.50
2022-09-04T19:06:34.586Z,101202.53
2022-09-04T19:09:13.369Z,101188.72
2022-09-04T19:11:49.040Z,101208.00
2022-09-04T19:14:22.101Z,101181.63
2022-09-04T19:16:56.203Z,101207.84
2022-09-04T19:19:32.868Z,101202.75
2022-09-04T19:22:12.103Z,101201.56
2022-09-04T19:24:48.950Z,101184.50
2022-09-04T19:27:28.197Z,101218.47
2022-09-04T19:30:18.047Z,101216.59
2022-09-04T19:33:09.971Z,101210.81
2022-09-04T19:35:47.828Z,101201.19
2022-09-04T19:44:13.571Z,101209.59
2022-09-04T19:46:07.640Z,101210.31
2022-09-04T19:46:15.050Z,101210.81
2022-09-04T19:47:28.688Z,101214.25
2022-09-04T19:53:21.885Z,101210.00
2022-09-04T19:53:33.441Z,101207.16
2022-09-04T19:56:08.547Z,101196.53
2022-09-04T19:58:44.069Z,101206.72
2022-09-04T20:01:17.114Z,101191.56
2022-09-04T20:03:51.826Z,101205.94
2022-09-04T20:06:27.650Z,101216.97
2022-09-04T20:09:03.660Z,101205.69
2022-09-04T20:11:40.961Z,101210.50
2022-09-04T20:14:23.146Z,101187.72
2022-09-04T20:17:10.017Z,101135.69
2022-09-04T20:19:45.788Z,101207.19
2022-09-04T20:22:28.337Z,101208.53
2022-09-04T20:25:31.714Z,101207.34
2022-09-04T20:28:15.429Z,101209.34
2022-09-04T20:30:49.545Z,101203.53
2022-09-04T20:33:22.910Z,101210.22
2022-09-04T20:35:54.299Z,101205.13
2022-09-04T20:38:30.559Z,101203.72
2022-09-04T20:41:09.230Z,101204.31
2022-09-04T20:43:48.791Z,101191.53
2022-09-04T20:51:58.348Z,101119.97
2022-09-04T20:52:56.058Z,101191.81
2022-09-04T20:52:59.379Z,101202.63
2022-09-04T20:55:33.806Z,101217.75
2022-09-04T21:02:02.506Z,101216.75
2022-09-04T21:03:23.726Z,101199.47
2022-09-04T21:04:42.436Z,101206.75
2022-09-04T21:07:20.588Z,101185.28
2022-09-04T21:10:00.130Z,101228.34
2022-09-04T21:12:37.381Z,101187.56
2022-09-04T21:15:18.357Z,101215.31
2022-09-04T21:18:18.698Z,101218.97
2022-09-04T21:21:22.268Z,101213.75
2022-09-04T21:24:13.082Z,101216.34
2022-09-04T21:27:07.575Z,101220.63
2022-09-04T21:29:53.036Z,101217.47
2022-09-04T21:32:39.483Z,101219.53
2022-09-04T21:35:17.123Z,101212.47
2022-09-04T21:37:50.803Z,101206.84
2022-09-04T21:40:52.525Z,101219.81
2022-09-04T21:43:47.448Z,101207.66
2022-09-04T21:46:34.380Z,101207.63
2022-09-04T21:49:26.344Z,101190.56
2022-09-04T21:52:17.069Z,101205.06
2022-09-04T21:57:28.837Z,101195.06
2022-09-04T22:02:40.290Z,101203.84
2022-09-04T22:02:47.934Z,101210.88
2022-09-04T22:04:47.477Z,101205.72
2022-09-04T22:11:00.908Z,101205.91
2022-09-04T22:13:28.961Z,101209.41
2022-09-04T22:13:53.121Z,101211.63
2022-09-04T22:16:49.006Z,101194.53
2022-09-04T22:19:50.112Z,101229.47
2022-09-04T22:22:43.234Z,101208.94
2022-09-04T22:25:33.837Z,101198.78
2022-09-04T22:28:37.230Z,101218.69
2022-09-04T22:31:29.644Z,101211.34
2022-09-04T22:34:28.592Z,101212.72
2022-09-04T22:37:30.868Z,101207.59
2022-09-04T22:40:18.846Z,101196.34
2022-09-04T22:42:56.638Z,101214.44
2022-09-04T22:45:46.456Z,101200.47
2022-09-04T22:48:37.789Z,101197.31
2022-09-04T22:51:22.026Z,101206.75
2022-09-04T22:54:16.227Z,101204.72
2022-09-04T22:56:54.969Z,101143.06
2022-09-04T22:59:56.180Z,101204.19
2022-09-04T23:03:14.130Z,101203.25
2022-09-04T23:06:08.837Z,101207.41
2022-09-04T23:13:46.379Z,101189.38
2022-09-04T23:13:56.230Z,101195.34
2022-09-04T23:16:00.353Z,101199.06
2022-09-04T23:24:10.078Z,101199.47
2022-09-04T23:26:35.202Z,101213.09
2022-09-04T23:26:47.562Z,101203.91
2022-09-04T23:28:27.916Z,101205.31
2022-09-04T23:31:13.003Z,101206.75
2022-09-04T23:34:06.367Z,101195.78
2022-09-04T23:36:57.810Z,101197.31
2022-09-04T23:39:53.353Z,101200.63
2022-09-04T23:42:41.835Z,101196.31
2022-09-04T23:45:30.640Z,101192.78
2022-09-04T23:48:23.564Z,101192.84
2022-09-04T23:51:00.849Z,101177.50
2022-09-04T23:53:37.763Z,101195.72
2022-09-04T23:56:22.875Z,101197.75
2022-09-04T23:59:22.589Z,101185.97
